sensor_id;sensor_type;location;lat;lon;timestamp;temperature;humidity
80579;SHT31;69939;52.402;6.608;2024-03-07T00:00:29;4.00;97.78
80579;SHT31;69939;52.402;6.608;2024-03-07T00:03:00;3.95;97.93
80579;SHT31;69939;52.402;6.608;2024-03-07T00:05:33;3.97;98.13
80579;SHT31;69939;52.402;6.608;2024-03-07T00:08:05;3.93;98.18
80579;SHT31;69939;52.402;6.608;2024-03-07T00:10:36;3.93;98.31
80579;SHT31;69939;52.402;6.608;2024-03-07T00:13:10;3.91;98.27
80579;SHT31;69939;52.402;6.608;2024-03-07T00:15:42;3.87;98.45
80579;SHT31;69939;52.402;6.608;2024-03-07T00:18:13;3.84;98.54
80579;SHT31;69939;52.402;6.608;2024-03-07T00:20:46;3.87;98.69
80579;SHT31;69939;52.402;6.608;2024-03-07T00:23:16;3.84;98.49
80579;SHT31;69939;52.402;6.608;2024-03-07T00:25:55;3.81;98.64
80579;SHT31;69939;52.402;6.608;2024-03-07T00:28:28;3.77;98.81
80579;SHT31;69939;52.402;6.608;2024-03-07T00:31:04;3.79;99.04
80579;SHT31;69939;52.402;6.608;2024-03-07T00:33:36;3.77;98.95
80579;SHT31;69939;52.402;6.608;2024-03-07T00:36:06;3.73;99.01
80579;SHT31;69939;52.402;6.608;2024-03-07T00:38:38;3.71;99.11
80579;SHT31;69939;52.402;6.608;2024-03-07T00:41:11;3.66;99.02
80579;SHT31;69939;52.402;6.608;2024-03-07T00:43:45;3.59;99.02
80579;SHT31;69939;52.402;6.608;2024-03-07T00:46:16;3.58;99.22
80579;SHT31;69939;52.402;6.608;2024-03-07T00:51:34;3.55;99.51
80579;SHT31;69939;52.402;6.608;2024-03-07T00:54:06;3.59;99.33
80579;SHT31;69939;52.402;6.608;2024-03-07T00:56:40;3.58;99.04
80579;SHT31;69939;52.402;6.608;2024-03-07T00:59:36;3.53;99.05
80579;SHT31;69939;52.402;6.608;2024-03-07T01:02:09;3.58;99.07
80579;SHT31;69939;52.402;6.608;2024-03-07T01:04:49;3.60;99.04
80579;SHT31;69939;52.402;6.608;2024-03-07T01:07:23;3.64;98.57
80579;SHT31;69939;52.402;6.608;2024-03-07T01:10:05;3.80;98.04
80579;SHT31;69939;52.402;6.608;2024-03-07T01:12:51;3.86;98.07
80579;SHT31;69939;52.402;6.608;2024-03-07T01:15:34;3.87;97.52
80579;SHT31;69939;52.402;6.608;2024-03-07T01:18:10;3.87;97.37
80579;SHT31;69939;52.402;6.608;2024-03-07T01:23:44;3.84;97.23
80579;SHT31;69939;52.402;6.608;2024-03-07T01:26:24;3.89;97.25
80579;SHT31;69939;52.402;6.608;2024-03-07T01:29:12;3.90;97.13
80579;SHT31;69939;52.402;6.608;2024-03-07T01:31:52;3.90;96.74
80579;SHT31;69939;52.402;6.608;2024-03-07T01:34:54;3.91;96.76
80579;SHT31;69939;52.402;6.608;2024-03-07T01:37:42;3.90;96.60
80579;SHT31;69939;52.402;6.608;2024-03-07T01:40:25;3.86;96.52
80579;SHT31;69939;52.402;6.608;2024-03-07T01:43:20;3.81;96.67
80579;SHT31;69939;52.402;6.608;2024-03-07T01:45:57;3.76;96.69
80579;SHT31;69939;52.402;6.608;2024-03-07T01:48:39;3.69;97.11
80579;SHT31;69939;52.402;6.608;2024-03-07T01:51:09;3.71;96.91
80579;SHT31;69939;52.402;6.608;2024-03-07T01:53:42;3.69;96.88
80579;SHT31;69939;52.402;6.608;2024-03-07T01:56:16;3.69;96.72
80579;SHT31;69939;52.402;6.608;2024-03-07T01:58:52;3.69;97.01
80579;SHT31;69939;52.402;6.608;2024-03-07T02:01:28;3.69;96.83
80579;SHT31;69939;52.402;6.608;2024-03-07T02:04:05;3.60;96.81
80579;SHT31;69939;52.402;6.608;2024-03-07T02:06:40;3.59;97.01
80579;SHT31;69939;52.402;6.608;2024-03-07T02:09:11;3.59;97.10
80579;SHT31;69939;52.402;6.608;2024-03-07T02:11:43;3.60;96.89
80579;SHT31;69939;52.402;6.608;2024-03-07T02:14:17;3.64;96.59
80579;SHT31;69939;52.402;6.608;2024-03-07T02:16:48;3.63;96.44
80579;SHT31;69939;52.402;6.608;2024-03-07T02:19:22;3.58;96.32
80579;SHT31;69939;52.402;6.608;2024-03-07T02:21:55;3.52;96.51
80579;SHT31;69939;52.402;6.608;2024-03-07T02:24:33;3.52;96.52
80579;SHT31;69939;52.402;6.608;2024-03-07T02:27:08;3.53;96.32
80579;SHT31;69939;52.402;6.608;2024-03-07T02:29:39;3.52;96.18
80579;SHT31;69939;52.402;6.608;2024-03-07T02:32:10;3.52;96.06
80579;SHT31;69939;52.402;6.608;2024-03-07T02:34:39;3.49;95.83
80579;SHT31;69939;52.402;6.608;2024-03-07T02:37:12;3.49;95.98
80579;SHT31;69939;52.402;6.608;2024-03-07T02:39:45;3.49;95.92
80579;SHT31;69939;52.402;6.608;2024-03-07T02:42:15;3.46;96.00
80579;SHT31;69939;52.402;6.608;2024-03-07T02:44:45;3.43;95.72
80579;SHT31;69939;52.402;6.608;2024-03-07T02:47:18;3.40;95.53
80579;SHT31;69939;52.402;6.608;2024-03-07T02:49:50;3.38;95.57
80579;SHT31;69939;52.402;6.608;2024-03-07T02:52:23;3.35;95.59
80579;SHT31;69939;52.402;6.608;2024-03-07T02:54:58;3.26;95.45
80579;SHT31;69939;52.402;6.608;2024-03-07T02:57:28;3.29;95.59
80579;SHT31;69939;52.402;6.608;2024-03-07T02:59:58;3.24;95.65
80579;SHT31;69939;52.402;6.608;2024-03-07T03:02:28;3.21;95.77
80579;SHT31;69939;52.402;6.608;2024-03-07T03:05:00;3.16;95.62
80579;SHT31;69939;52.402;6.608;2024-03-07T03:07:31;3.12;95.65
80579;SHT31;69939;52.402;6.608;2024-03-07T03:10:07;3.11;95.74
80579;SHT31;69939;52.402;6.608;2024-03-07T03:12:48;3.05;95.68
80579;SHT31;69939;52.402;6.608;2024-03-07T03:15:18;3.00;95.70
80579;SHT31;69939;52.402;6.608;2024-03-07T03:17:49;2.95;95.70
80579;SHT31;69939;52.402;6.608;2024-03-07T03:20:23;2.93;95.90
80579;SHT31;69939;52.402;6.608;2024-03-07T03:23:05;2.93;95.80
80579;SHT31;69939;52.402;6.608;2024-03-07T03:25:40;2.88;96.01
80579;SHT31;69939;52.402;6.608;2024-03-07T03:28:12;2.87;96.15
80579;SHT31;69939;52.402;6.608;2024-03-07T03:30:46;2.83;96.19
80579;SHT31;69939;52.402;6.608;2024-03-07T03:33:23;2.80;96.08
80579;SHT31;69939;52.402;6.608;2024-03-07T03:35:53;2.74;96.36
80579;SHT31;69939;52.402;6.608;2024-03-07T03:38:24;2.76;96.25
80579;SHT31;69939;52.402;6.608;2024-03-07T03:41:05;2.70;96.51
80579;SHT31;69939;52.402;6.608;2024-03-07T03:43:38;2.72;96.10
80579;SHT31;69939;52.402;6.608;2024-03-07T03:46:12;2.68;96.12
80579;SHT31;69939;52.402;6.608;2024-03-07T03:48:42;2.64;96.32
80579;SHT31;69939;52.402;6.608;2024-03-07T03:51:11;2.63;96.58
80579;SHT31;69939;52.402;6.608;2024-03-07T03:53:41;2.67;96.40
80579;SHT31;69939;52.402;6.608;2024-03-07T03:56:14;2.70;95.95
80579;SHT31;69939;52.402;6.608;2024-03-07T03:58:44;2.64;95.89
80579;SHT31;69939;52.402;6.608;2024-03-07T04:01:14;2.63;96.10
80579;SHT31;69939;52.402;6.608;2024-03-07T04:03:43;2.63;96.11
80579;SHT31;69939;52.402;6.608;2024-03-07T04:06:13;2.61;96.33
80579;SHT31;69939;52.402;6.608;2024-03-07T04:08:43;2.58;96.03
80579;SHT31;69939;52.402;6.608;2024-03-07T04:11:16;2.56;96.27
80579;SHT31;69939;52.402;6.608;2024-03-07T04:13:45;2.50;96.13
80579;SHT31;69939;52.402;6.608;2024-03-07T04:16:14;2.54;96.12
80579;SHT31;69939;52.402;6.608;2024-03-07T04:18:44;2.52;96.18
80579;SHT31;69939;52.402;6.608;2024-03-07T04:21:14;2.52;96.03
80579;SHT31;69939;52.402;6.608;2024-03-07T04:23:44;2.46;96.29
80579;SHT31;69939;52.402;6.608;2024-03-07T04:26:16;2.46;95.99
80579;SHT31;69939;52.402;6.608;2024-03-07T04:28:46;2.43;96.06
80579;SHT31;69939;52.402;6.608;2024-03-07T04:31:16;2.37;96.17
80579;SHT31;69939;52.402;6.608;2024-03-07T04:33:51;2.30;96.37
80579;SHT31;69939;52.402;6.608;2024-03-07T04:36:21;2.29;96.33
80579;SHT31;69939;52.402;6.608;2024-03-07T04:38:51;2.24;96.64
80579;SHT31;69939;52.402;6.608;2024-03-07T04:41:24;2.22;96.65
80579;SHT31;69939;52.402;6.608;2024-03-07T04:43:54;2.21;96.70
80579;SHT31;69939;52.402;6.608;2024-03-07T04:46:25;2.19;96.49
80579;SHT31;69939;52.402;6.608;2024-03-07T04:48:57;2.15;96.84
80579;SHT31;69939;52.402;6.608;2024-03-07T04:51:27;2.17;96.68
80579;SHT31;69939;52.402;6.608;2024-03-07T04:54:05;2.12;96.75
80579;SHT31;69939;52.402;6.608;2024-03-07T04:56:37;2.11;96.69
80579;SHT31;69939;52.402;6.608;2024-03-07T04:59:04;2.11;96.90
80579;SHT31;69939;52.402;6.608;2024-03-07T05:01:37;2.07;96.62
80579;SHT31;69939;52.402;6.608;2024-03-07T05:04:11;2.01;97.05
80579;SHT31;69939;52.402;6.608;2024-03-07T05:06:47;1.99;96.86
80579;SHT31;69939;52.402;6.608;2024-03-07T05:09:21;1.98;97.11
80579;SHT31;69939;52.402;6.608;2024-03-07T05:11:59;1.98;96.85
80579;SHT31;69939;52.402;6.608;2024-03-07T05:14:35;1.95;96.87
80579;SHT31;69939;52.402;6.608;2024-03-07T05:17:15;1.88;97.04
80579;SHT31;69939;52.402;6.608;2024-03-07T05:19:58;1.85;97.18
80579;SHT31;69939;52.402;6.608;2024-03-07T05:22:35;1.84;97.32
80579;SHT31;69939;52.402;6.608;2024-03-07T05:25:12;1.81;97.09
80579;SHT31;69939;52.402;6.608;2024-03-07T05:27:48;1.80;97.36
80579;SHT31;69939;52.402;6.608;2024-03-07T05:30:21;1.75;97.15
80579;SHT31;69939;52.402;6.608;2024-03-07T05:33:08;1.68;97.21
80579;SHT31;69939;52.402;6.608;2024-03-07T05:35:50;1.67;97.35
80579;SHT31;69939;52.402;6.608;2024-03-07T05:38:28;1.67;97.32
80579;SHT31;69939;52.402;6.608;2024-03-07T05:41:12;1.60;97.35
80579;SHT31;69939;52.402;6.608;2024-03-07T05:43:51;1.56;97.42
80579;SHT31;69939;52.402;6.608;2024-03-07T05:46:23;1.57;97.47
80579;SHT31;69939;52.402;6.608;2024-03-07T05:48:57;1.56;97.60
80579;SHT31;69939;52.402;6.608;2024-03-07T05:51:34;1.50;97.54
80579;SHT31;69939;52.402;6.608;2024-03-07T05:54:08;1.44;97.65
80579;SHT31;69939;52.402;6.608;2024-03-07T05:56:41;1.47;97.77
80579;SHT31;69939;52.402;6.608;2024-03-07T05:59:13;1.43;97.66
80579;SHT31;69939;52.402;6.608;2024-03-07T06:01:51;1.40;98.03
80579;SHT31;69939;52.402;6.608;2024-03-07T06:04:27;1.44;98.08
80579;SHT31;69939;52.402;6.608;2024-03-07T06:07:01;1.46;97.93
80579;SHT31;69939;52.402;6.608;2024-03-07T06:09:51;1.49;97.77
80579;SHT31;69939;52.402;6.608;2024-03-07T06:12:47;1.49;97.85
80579;SHT31;69939;52.402;6.608;2024-03-07T06:15:20;1.51;97.83
80579;SHT31;69939;52.402;6.608;2024-03-07T06:17:54;1.51;97.82
80579;SHT31;69939;52.402;6.608;2024-03-07T06:20:26;1.53;97.75
80579;SHT31;69939;52.402;6.608;2024-03-07T06:23:34;1.59;97.46
80579;SHT31;69939;52.402;6.608;2024-03-07T06:26:27;1.56;97.31
80579;SHT31;69939;52.402;6.608;2024-03-07T06:29:38;1.61;97.52
80579;SHT31;69939;52.402;6.608;2024-03-07T06:32:17;1.64;97.25
80579;SHT31;69939;52.402;6.608;2024-03-07T06:35:09;1.67;97.28
80579;SHT31;69939;52.402;6.608;2024-03-07T06:42:03;1.71;97.08
80579;SHT31;69939;52.402;6.608;2024-03-07T06:44:57;1.77;96.98
80579;SHT31;69939;52.402;6.608;2024-03-07T06:50:30;1.85;96.62
80579;SHT31;69939;52.402;6.608;2024-03-07T06:53:13;1.90;96.60
80579;SHT31;69939;52.402;6.608;2024-03-07T06:55:52;1.91;96.46
80579;SHT31;69939;52.402;6.608;2024-03-07T06:58:29;1.99;96.34
80579;SHT31;69939;52.402;6.608;2024-03-07T07:01:28;2.04;96.13
80579;SHT31;69939;52.402;6.608;2024-03-07T07:04:22;2.12;95.92
80579;SHT31;69939;52.402;6.608;2024-03-07T07:06:57;2.19;95.77
80579;SHT31;69939;52.402;6.608;2024-03-07T07:09:35;2.25;95.54
80579;SHT31;69939;52.402;6.608;2024-03-07T07:12:08;2.36;95.41
80579;SHT31;69939;52.402;6.608;2024-03-07T07:14:38;2.40;95.26
80579;SHT31;69939;52.402;6.608;2024-03-07T07:17:07;2.49;95.16
80579;SHT31;69939;52.402;6.608;2024-03-07T07:19:38;2.58;94.84
80579;SHT31;69939;52.402;6.608;2024-03-07T07:22:07;2.66;94.47
80579;SHT31;69939;52.402;6.608;2024-03-07T07:24:38;3.24;93.70
80579;SHT31;69939;52.402;6.608;2024-03-07T07:27:13;4.04;91.17
80579;SHT31;69939;52.402;6.608;2024-03-07T07:29:42;4.80;88.90
80579;SHT31;69939;52.402;6.608;2024-03-07T07:32:18;5.24;87.03
80579;SHT31;69939;52.402;6.608;2024-03-07T07:34:48;5.66;86.25
80579;SHT31;69939;52.402;6.608;2024-03-07T07:37:17;6.16;83.77
80579;SHT31;69939;52.402;6.608;2024-03-07T07:39:47;6.42;83.64
80579;SHT31;69939;52.402;6.608;2024-03-07T07:42:17;6.68;82.40
80579;SHT31;69939;52.402;6.608;2024-03-07T07:44:46;6.92;82.25
80579;SHT31;69939;52.402;6.608;2024-03-07T07:47:18;6.97;82.71
80579;SHT31;69939;52.402;6.608;2024-03-07T07:49:47;7.18;82.28
80579;SHT31;69939;52.402;6.608;2024-03-07T07:52:17;7.47;80.44
80579;SHT31;69939;52.402;6.608;2024-03-07T07:54:46;7.52;78.57
80579;SHT31;69939;52.402;6.608;2024-03-07T07:57:22;7.41;78.63
80579;SHT31;69939;52.402;6.608;2024-03-07T07:59:52;7.43;79.87
80579;SHT31;69939;52.402;6.608;2024-03-07T08:02:21;7.38;78.49
80579;SHT31;69939;52.402;6.608;2024-03-07T08:04:51;7.35;78.55
80579;SHT31;69939;52.402;6.608;2024-03-07T08:07:24;7.51;79.29
80579;SHT31;69939;52.402;6.608;2024-03-07T08:09:53;7.55;78.34
80579;SHT31;69939;52.402;6.608;2024-03-07T08:12:25;7.55;78.21
80579;SHT31;69939;52.402;6.608;2024-03-07T08:14:55;7.64;77.93
80579;SHT31;69939;52.402;6.608;2024-03-07T08:17:24;7.90;77.14
80579;SHT31;69939;52.402;6.608;2024-03-07T08:19:54;7.74;77.87
80579;SHT31;69939;52.402;6.608;2024-03-07T08:22:23;7.78;78.50
80579;SHT31;69939;52.402;6.608;2024-03-07T08:24:53;7.90;77.56
80579;SHT31;69939;52.402;6.608;2024-03-07T08:27:25;7.65;77.85
80579;SHT31;69939;52.402;6.608;2024-03-07T08:29:56;7.86;78.01
80579;SHT31;69939;52.402;6.608;2024-03-07T08:32:25;7.90;77.33
80579;SHT31;69939;52.402;6.608;2024-03-07T08:34:55;7.95;77.62
80579;SHT31;69939;52.402;6.608;2024-03-07T08:37:24;7.75;76.91
80579;SHT31;69939;52.402;6.608;2024-03-07T08:39:53;7.50;78.06
80579;SHT31;69939;52.402;6.608;2024-03-07T08:42:25;7.64;78.10
80579;SHT31;69939;52.402;6.608;2024-03-07T08:44:54;7.31;78.44
80579;SHT31;69939;52.402;6.608;2024-03-07T08:47:24;7.03;79.29
80579;SHT31;69939;52.402;6.608;2024-03-07T08:49:54;6.78;80.10
80579;SHT31;69939;52.402;6.608;2024-03-07T08:52:23;6.62;81.32
80579;SHT31;69939;52.402;6.608;2024-03-07T08:54:54;6.62;81.64
80579;SHT31;69939;52.402;6.608;2024-03-07T08:57:26;6.62;81.56
80579;SHT31;69939;52.402;6.608;2024-03-07T08:59:56;6.61;81.85
80579;SHT31;69939;52.402;6.608;2024-03-07T09:02:27;6.55;81.67
80579;SHT31;69939;52.402;6.608;2024-03-07T09:04:56;6.49;82.50
80579;SHT31;69939;52.402;6.608;2024-03-07T09:07:28;6.40;82.53
80579;SHT31;69939;52.402;6.608;2024-03-07T09:09:58;6.03;82.47
80579;SHT31;69939;52.402;6.608;2024-03-07T09:12:30;6.03;83.84
80579;SHT31;69939;52.402;6.608;2024-03-07T09:15:00;6.01;83.84
80579;SHT31;69939;52.402;6.608;2024-03-07T09:17:29;5.92;83.87
80579;SHT31;69939;52.402;6.608;2024-03-07T09:20:02;5.82;84.32
80579;SHT31;69939;52.402;6.608;2024-03-07T09:22:33;5.80;84.23
80579;SHT31;69939;52.402;6.608;2024-03-07T09:25:04;5.87;84.85
80579;SHT31;69939;52.402;6.608;2024-03-07T09:27:41;5.94;84.51
80579;SHT31;69939;52.402;6.608;2024-03-07T09:30:16;5.80;84.90
80579;SHT31;69939;52.402;6.608;2024-03-07T09:32:49;5.74;85.04
80579;SHT31;69939;52.402;6.608;2024-03-07T09:35:20;5.65;84.64
80579;SHT31;69939;52.402;6.608;2024-03-07T09:37:50;5.60;84.75
80579;SHT31;69939;52.402;6.608;2024-03-07T09:40:19;5.60;84.46
80579;SHT31;69939;52.402;6.608;2024-03-07T09:42:50;5.67;85.74
80579;SHT31;69939;52.402;6.608;2024-03-07T09:45:28;5.52;84.99
80579;SHT31;69939;52.402;6.608;2024-03-07T09:48:02;5.67;85.13
80579;SHT31;69939;52.402;6.608;2024-03-07T09:50:38;5.80;85.19
80579;SHT31;69939;52.402;6.608;2024-03-07T09:53:13;5.77;85.24
80579;SHT31;69939;52.402;6.608;2024-03-07T09:55:46;5.74;85.78
80579;SHT31;69939;52.402;6.608;2024-03-07T09:58:18;5.79;85.17
80579;SHT31;69939;52.402;6.608;2024-03-07T10:00:50;5.82;84.76
80579;SHT31;69939;52.402;6.608;2024-03-07T10:03:27;5.83;85.16
80579;SHT31;69939;52.402;6.608;2024-03-07T10:05:58;5.83;84.95
80579;SHT31;69939;52.402;6.608;2024-03-07T10:08:29;5.83;85.07
80579;SHT31;69939;52.402;6.608;2024-03-07T10:10:59;6.14;84.67
80579;SHT31;69939;52.402;6.608;2024-03-07T10:13:29;6.48;83.98
80579;SHT31;69939;52.402;6.608;2024-03-07T10:15:58;6.78;82.78
80579;SHT31;69939;52.402;6.608;2024-03-07T10:18:41;7.06;83.08
80579;SHT31;69939;52.402;6.608;2024-03-07T10:21:12;7.41;81.79
80579;SHT31;69939;52.402;6.608;2024-03-07T10:23:43;7.52;80.74
80579;SHT31;69939;52.402;6.608;2024-03-07T10:26:13;7.55;81.25
80579;SHT31;69939;52.402;6.608;2024-03-07T10:28:43;7.62;80.36
80579;SHT31;69939;52.402;6.608;2024-03-07T10:31:33;7.68;80.33
80579;SHT31;69939;52.402;6.608;2024-03-07T10:34:05;7.72;79.90
80579;SHT31;69939;52.402;6.608;2024-03-07T10:36:35;7.76;79.63
80579;SHT31;69939;52.402;6.608;2024-03-07T10:39:05;7.87;79.78
80579;SHT31;69939;52.402;6.608;2024-03-07T10:41:45;7.92;79.23
80579;SHT31;69939;52.402;6.608;2024-03-07T10:44:24;7.82;79.24
80579;SHT31;69939;52.402;6.608;2024-03-07T10:47:20;7.90;79.62
80579;SHT31;69939;52.402;6.608;2024-03-07T10:50:02;8.04;79.55
80579;SHT31;69939;52.402;6.608;2024-03-07T10:52:49;7.86;79.45
80579;SHT31;69939;52.402;6.608;2024-03-07T10:55:34;7.81;79.91
80579;SHT31;69939;52.402;6.608;2024-03-07T10:58:24;7.85;79.59
80579;SHT31;69939;52.402;6.608;2024-03-07T11:01:04;7.75;79.89
80579;SHT31;69939;52.402;6.608;2024-03-07T11:03:36;7.81;79.92
80579;SHT31;69939;52.402;6.608;2024-03-07T11:06:08;7.74;79.59
80579;SHT31;69939;52.402;6.608;2024-03-07T11:08:43;7.99;79.64
80579;SHT31;69939;52.402;6.608;2024-03-07T11:11:14;8.45;78.73
80579;SHT31;69939;52.402;6.608;2024-03-07T11:13:49;8.57;78.15
80579;SHT31;69939;52.402;6.608;2024-03-07T11:16:20;9.02;76.44
80579;SHT31;69939;52.402;6.608;2024-03-07T11:22:02;8.58;77.75
80579;SHT31;69939;52.402;6.608;2024-03-07T11:24:41;8.64;77.60
80579;SHT31;69939;52.402;6.608;2024-03-07T11:27:14;8.69;77.60
80579;SHT31;69939;52.402;6.608;2024-03-07T11:29:47;8.85;78.05
80579;SHT31;69939;52.402;6.608;2024-03-07T11:32:20;8.99;77.02
80579;SHT31;69939;52.402;6.608;2024-03-07T11:34:54;9.08;77.03
80579;SHT31;69939;52.402;6.608;2024-03-07T11:37:42;9.33;77.08
80579;SHT31;69939;52.402;6.608;2024-03-07T11:40:13;9.34;75.93
80579;SHT31;69939;52.402;6.608;2024-03-07T11:43:14;9.23;76.42
80579;SHT31;69939;52.402;6.608;2024-03-07T11:45:45;9.15;77.36
80579;SHT31;69939;52.402;6.608;2024-03-07T11:48:18;9.16;77.61
80579;SHT31;69939;52.402;6.608;2024-03-07T11:50:48;9.10;78.20
80579;SHT31;69939;52.402;6.608;2024-03-07T11:53:21;9.18;77.47
80579;SHT31;69939;52.402;6.608;2024-03-07T11:55:52;9.26;77.06
80579;SHT31;69939;52.402;6.608;2024-03-07T11:58:27;9.31;76.92
80579;SHT31;69939;52.402;6.608;2024-03-07T12:00:57;9.27;77.17
80579;SHT31;69939;52.402;6.608;2024-03-07T12:03:28;9.12;77.51
80579;SHT31;69939;52.402;6.608;2024-03-07T12:05:59;8.81;77.80
80579;SHT31;69939;52.402;6.608;2024-03-07T12:08:35;8.78;78.57
80579;SHT31;69939;52.402;6.608;2024-03-07T12:11:04;8.79;78.32
80579;SHT31;69939;52.402;6.608;2024-03-07T12:13:38;8.64;78.95
80579;SHT31;69939;52.402;6.608;2024-03-07T12:16:07;8.89;78.74
80579;SHT31;69939;52.402;6.608;2024-03-07T12:18:38;9.08;78.30
80579;SHT31;69939;52.402;6.608;2024-03-07T12:21:09;8.82;78.74
80579;SHT31;69939;52.402;6.608;2024-03-07T12:23:42;8.78;78.78
80579;SHT31;69939;52.402;6.608;2024-03-07T12:26:12;8.79;78.81
80579;SHT31;69939;52.402;6.608;2024-03-07T12:28:42;8.89;78.87
80579;SHT31;69939;52.402;6.608;2024-03-07T12:31:12;8.88;78.91
80579;SHT31;69939;52.402;6.608;2024-03-07T12:33:47;8.92;79.14
80579;SHT31;69939;52.402;6.608;2024-03-07T12:36:17;9.08;78.58
80579;SHT31;69939;52.402;6.608;2024-03-07T12:38:53;8.76;79.44
80579;SHT31;69939;52.402;6.608;2024-03-07T12:41:23;8.62;79.95
80579;SHT31;69939;52.402;6.608;2024-03-07T12:43:53;8.68;79.73
80579;SHT31;69939;52.402;6.608;2024-03-07T12:46:23;8.65;79.79
80579;SHT31;69939;52.402;6.608;2024-03-07T12:48:56;8.76;79.75
80579;SHT31;69939;52.402;6.608;2024-03-07T12:51:25;8.78;79.56
80579;SHT31;69939;52.402;6.608;2024-03-07T12:53:55;8.86;79.88
80579;SHT31;69939;52.402;6.608;2024-03-07T12:56:24;8.93;79.09
80579;SHT31;69939;52.402;6.608;2024-03-07T12:58:53;8.90;79.19
80579;SHT31;69939;52.402;6.608;2024-03-07T13:01:25;8.79;79.61
80579;SHT31;69939;52.402;6.608;2024-03-07T13:03:57;8.75;79.68
80579;SHT31;69939;52.402;6.608;2024-03-07T13:06:27;8.83;79.97
80579;SHT31;69939;52.402;6.608;2024-03-07T13:08:56;8.90;79.55
80579;SHT31;69939;52.402;6.608;2024-03-07T13:11:25;8.88;79.42
80579;SHT31;69939;52.402;6.608;2024-03-07T13:13:57;8.86;79.82
80579;SHT31;69939;52.402;6.608;2024-03-07T13:16:27;8.85;79.97
80579;SHT31;69939;52.402;6.608;2024-03-07T13:18:59;8.72;79.69
80579;SHT31;69939;52.402;6.608;2024-03-07T13:21:36;8.68;79.91
80579;SHT31;69939;52.402;6.608;2024-03-07T13:24:06;8.45;80.42
80579;SHT31;69939;52.402;6.608;2024-03-07T13:26:36;8.27;80.96
80579;SHT31;69939;52.402;6.608;2024-03-07T13:29:05;8.20;80.89
80579;SHT31;69939;52.402;6.608;2024-03-07T13:31:36;8.12;81.37
80579;SHT31;69939;52.402;6.608;2024-03-07T13:34:08;8.17;81.22
80579;SHT31;69939;52.402;6.608;2024-03-07T13:36:43;7.97;82.01
80579;SHT31;69939;52.402;6.608;2024-03-07T13:39:13;7.92;81.82
80579;SHT31;69939;52.402;6.608;2024-03-07T13:41:43;7.92;81.80
80579;SHT31;69939;52.402;6.608;2024-03-07T13:44:19;7.97;82.19
80579;SHT31;69939;52.402;6.608;2024-03-07T13:46:49;8.09;82.26
80579;SHT31;69939;52.402;6.608;2024-03-07T13:49:20;8.00;81.85
80579;SHT31;69939;52.402;6.608;2024-03-07T13:51:49;7.92;81.37
80579;SHT31;69939;52.402;6.608;2024-03-07T13:54:19;7.93;81.11
80579;SHT31;69939;52.402;6.608;2024-03-07T13:57:15;8.06;80.97
80579;SHT31;69939;52.402;6.608;2024-03-07T14:00:32;8.38;80.25
80579;SHT31;69939;52.402;6.608;2024-03-07T14:06:38;9.03;77.74
80579;SHT31;69939;52.402;6.608;2024-03-07T14:09:46;9.09;77.68
80579;SHT31;69939;52.402;6.608;2024-03-07T14:12:48;9.23;77.78
80579;SHT31;69939;52.402;6.608;2024-03-07T14:16:02;9.23;77.88
80579;SHT31;69939;52.402;6.608;2024-03-07T14:22:40;8.98;77.65
80579;SHT31;69939;52.402;6.608;2024-03-07T14:25:44;8.90;78.16
80579;SHT31;69939;52.402;6.608;2024-03-07T14:28:43;8.62;78.91
80579;SHT31;69939;52.402;6.608;2024-03-07T14:31:24;8.54;79.37
80579;SHT31;69939;52.402;6.608;2024-03-07T14:34:05;8.54;78.89
80579;SHT31;69939;52.402;6.608;2024-03-07T14:36:43;8.45;79.08
80579;SHT31;69939;52.402;6.608;2024-03-07T14:39:15;8.41;79.66
80579;SHT31;69939;52.402;6.608;2024-03-07T14:41:56;8.51;79.15
80579;SHT31;69939;52.402;6.608;2024-03-07T14:44:28;8.52;78.39
80579;SHT31;69939;52.402;6.608;2024-03-07T14:47:02;8.57;78.75
80579;SHT31;69939;52.402;6.608;2024-03-07T14:49:34;8.48;78.64
80579;SHT31;69939;52.402;6.608;2024-03-07T14:52:06;8.38;78.23
80579;SHT31;69939;52.402;6.608;2024-03-07T14:54:38;8.27;78.22
80579;SHT31;69939;52.402;6.608;2024-03-07T14:57:11;8.17;78.41
80579;SHT31;69939;52.402;6.608;2024-03-07T14:59:40;8.10;78.56
80579;SHT31;69939;52.402;6.608;2024-03-07T15:02:10;7.99;77.50
80579;SHT31;69939;52.402;6.608;2024-03-07T15:04:41;7.96;77.78
80579;SHT31;69939;52.402;6.608;2024-03-07T15:07:12;7.87;79.06
80579;SHT31;69939;52.402;6.608;2024-03-07T15:09:42;7.90;79.74
80579;SHT31;69939;52.402;6.608;2024-03-07T15:12:14;7.87;79.67
80579;SHT31;69939;52.402;6.608;2024-03-07T15:14:43;7.81;79.80
80579;SHT31;69939;52.402;6.608;2024-03-07T15:17:14;7.68;80.39
80579;SHT31;69939;52.402;6.608;2024-03-07T15:19:43;7.68;80.34
80579;SHT31;69939;52.402;6.608;2024-03-07T15:22:12;7.65;80.52
80579;SHT31;69939;52.402;6.608;2024-03-07T15:24:46;7.56;80.87
80579;SHT31;69939;52.402;6.608;2024-03-07T15:27:18;7.50;80.54
80579;SHT31;69939;52.402;6.608;2024-03-07T15:29:47;7.51;80.56
80579;SHT31;69939;52.402;6.608;2024-03-07T15:32:17;7.74;80.60
80579;SHT31;69939;52.402;6.608;2024-03-07T15:34:55;8.95;77.74
80579;SHT31;69939;52.402;6.608;2024-03-07T15:37:27;10.02;74.66
80579;SHT31;69939;52.402;6.608;2024-03-07T15:39:56;10.40;72.78
80579;SHT31;69939;52.402;6.608;2024-03-07T15:42:25;10.61;71.90
80579;SHT31;69939;52.402;6.608;2024-03-07T15:44:55;10.65;71.74
80579;SHT31;69939;52.402;6.608;2024-03-07T15:47:30;10.82;71.79
80579;SHT31;69939;52.402;6.608;2024-03-07T15:50:00;11.36;70.52
80579;SHT31;69939;52.402;6.608;2024-03-07T15:52:30;11.38;69.65
80579;SHT31;69939;52.402;6.608;2024-03-07T15:55:00;11.19;70.19
80579;SHT31;69939;52.402;6.608;2024-03-07T15:57:30;10.90;71.15
80579;SHT31;69939;52.402;6.608;2024-03-07T16:00:00;10.46;71.82
80579;SHT31;69939;52.402;6.608;2024-03-07T16:02:32;10.34;72.48
80579;SHT31;69939;52.402;6.608;2024-03-07T16:05:03;10.44;72.22
80579;SHT31;69939;52.402;6.608;2024-03-07T16:07:35;10.59;70.71
80579;SHT31;69939;52.402;6.608;2024-03-07T16:10:07;10.63;70.37
80579;SHT31;69939;52.402;6.608;2024-03-07T16:12:38;10.43;71.30
80579;SHT31;69939;52.402;6.608;2024-03-07T16:15:09;10.22;70.99
80579;SHT31;69939;52.402;6.608;2024-03-07T16:17:43;10.25;71.35
80579;SHT31;69939;52.402;6.608;2024-03-07T16:20:14;10.28;71.28
80579;SHT31;69939;52.402;6.608;2024-03-07T16:22:45;9.86;71.63
80579;SHT31;69939;52.402;6.608;2024-03-07T16:25:18;9.57;73.00
80579;SHT31;69939;52.402;6.608;2024-03-07T16:27:50;9.41;72.83
80579;SHT31;69939;52.402;6.608;2024-03-07T16:30:21;9.52;72.98
80579;SHT31;69939;52.402;6.608;2024-03-07T16:32:55;9.58;72.76
80579;SHT31;69939;52.402;6.608;2024-03-07T16:35:27;9.55;72.63
80579;SHT31;69939;52.402;6.608;2024-03-07T16:37:58;9.36;73.01
80579;SHT31;69939;52.402;6.608;2024-03-07T16:40:30;9.36;73.19
80579;SHT31;69939;52.402;6.608;2024-03-07T16:43:00;9.27;73.48
80579;SHT31;69939;52.402;6.608;2024-03-07T16:45:33;8.90;74.00
80579;SHT31;69939;52.402;6.608;2024-03-07T16:48:08;8.82;74.43
80579;SHT31;69939;52.402;6.608;2024-03-07T16:50:38;8.73;74.62
80579;SHT31;69939;52.402;6.608;2024-03-07T16:53:08;8.57;74.87